sensor_id;sensor_type;location;lat;lon;timestamp;P1;durP1;ratioP1;P2;durP2;ratioP2
48014;SDS011;33780;51.034;7.120;2023-02-01T00:01:40;6.88;;;3.03;;
48014;SDS011;33780;51.034;7.120;2023-02-01T00:04:06;8.88;;;2.97;;
48014;SDS011;33780;51.034;7.120;2023-02-01T00:06:31;9.80;;;2.88;;
48014;SDS011;33780;51.034;7.120;2023-02-01T00:08:57;8.98;;;3.08;;
48014;SDS011;33780;51.034;7.120;2023-02-01T00:11:22;11.32;;;2.55;;
48014;SDS011;33780;51.034;7.120;2023-02-01T00:13:48;10.07;;;2.80;;
48014;SDS011;33780;51.034;7.120;2023-02-01T00:16:18;6.30;;;2.28;;
48014;SDS011;33780;51.034;7.120;2023-02-01T00:18:49;5.63;;;2.50;;
48014;SDS011;33780;51.034;7.120;2023-02-01T00:21:16;7.70;;;2.65;;
48014;SDS011;33780;51.034;7.120;2023-02-01T00:23:43;7.43;;;2.47;;
48014;SDS011;33780;51.034;7.120;2023-02-01T00:26:16;10.10;;;2.55;;
48014;SDS011;33780;51.034;7.120;2023-02-01T00:28:43;7.70;;;2.25;;
48014;SDS011;33780;51.034;7.120;2023-02-01T00:31:08;9.07;;;2.53;;
48014;SDS011;33780;51.034;7.120;2023-02-01T00:33:35;5.35;;;2.40;;
48014;SDS011;33780;51.034;7.120;2023-02-01T00:36:01;7.88;;;2.17;;
48014;SDS011;33780;51.034;7.120;2023-02-01T00:38:28;9.13;;;2.58;;
48014;SDS011;33780;51.034;7.120;2023-02-01T00:41:01;6.63;;;2.50;;
48014;SDS011;33780;51.034;7.120;2023-02-01T00:43:31;8.15;;;2.58;;
48014;SDS011;33780;51.034;7.120;2023-02-01T00:45:57;8.23;;;2.65;;
48014;SDS011;33780;51.034;7.120;2023-02-01T00:48:22;7.75;;;2.92;;
48014;SDS011;33780;51.034;7.120;2023-02-01T00:50:48;10.57;;;3.20;;
48014;SDS011;33780;51.034;7.120;2023-02-01T00:53:13;12.77;;;2.90;;
48014;SDS011;33780;51.034;7.120;2023-02-01T00:55:38;7.53;;;2.88;;
48014;SDS011;33780;51.034;7.120;2023-02-01T00:58:03;10.98;;;2.55;;
48014;SDS011;33780;51.034;7.120;2023-02-01T01:00:31;10.40;;;2.53;;
48014;SDS011;33780;51.034;7.120;2023-02-01T01:02:57;7.85;;;2.60;;
48014;SDS011;33780;51.034;7.120;2023-02-01T01:05:22;7.72;;;2.97;;
48014;SDS011;33780;51.034;7.120;2023-02-01T01:07:47;9.05;;;2.35;;
48014;SDS011;33780;51.034;7.120;2023-02-01T01:10:13;10.00;;;2.30;;
48014;SDS011;33780;51.034;7.120;2023-02-01T01:12:38;5.80;;;2.10;;
48014;SDS011;33780;51.034;7.120;2023-02-01T01:15:03;12.38;;;2.13;;
48014;SDS011;33780;51.034;7.120;2023-02-01T01:17:30;6.13;;;1.83;;
48014;SDS011;33780;51.034;7.120;2023-02-01T01:19:56;8.35;;;2.17;;
48014;SDS011;33780;51.034;7.120;2023-02-01T01:22:22;5.85;;;1.95;;
48014;SDS011;33780;51.034;7.120;2023-02-01T01:24:47;10.50;;;2.08;;
48014;SDS011;33780;51.034;7.120;2023-02-01T01:27:12;7.75;;;1.88;;
48014;SDS011;33780;51.034;7.120;2023-02-01T01:29:37;5.57;;;1.88;;
48014;SDS011;33780;51.034;7.120;2023-02-01T01:32:03;8.02;;;1.67;;
48014;SDS011;33780;51.034;7.120;2023-02-01T01:34:28;6.90;;;1.77;;
48014;SDS011;33780;51.034;7.120;2023-02-01T01:36:53;5.25;;;1.55;;
48014;SDS011;33780;51.034;7.120;2023-02-01T01:39:19;7.40;;;1.70;;
48014;SDS011;33780;51.034;7.120;2023-02-01T01:41:44;7.82;;;1.60;;
48014;SDS011;33780;51.034;7.120;2023-02-01T01:47:13;8.38;;;1.60;;
48014;SDS011;33780;51.034;7.120;2023-02-01T01:49:40;5.68;;;1.20;;
48014;SDS011;33780;51.034;7.120;2023-02-01T01:52:06;6.55;;;1.40;;
48014;SDS011;33780;51.034;7.120;2023-02-01T01:54:33;5.07;;;1.13;;
48014;SDS011;33780;51.034;7.120;2023-02-01T01:57:04;5.43;;;1.05;;
48014;SDS011;33780;51.034;7.120;2023-02-01T01:59:33;4.75;;;1.30;;
48014;SDS011;33780;51.034;7.120;2023-02-01T02:02:03;5.95;;;1.40;;
48014;SDS011;33780;51.034;7.120;2023-02-01T02:04:28;3.47;;;1.50;;
48014;SDS011;33780;51.034;7.120;2023-02-01T02:06:56;4.47;;;1.50;;
48014;SDS011;33780;51.034;7.120;2023-02-01T02:09:26;5.93;;;1.40;;
48014;SDS011;33780;51.034;7.120;2023-02-01T02:11:52;5.18;;;1.60;;
48014;SDS011;33780;51.034;7.120;2023-02-01T02:14:17;4.47;;;1.42;;
48014;SDS011;33780;51.034;7.120;2023-02-01T02:42:12;4.35;;;1.48;;
48014;SDS011;33780;51.034;7.120;2023-02-01T02:45:05;10.48;;;1.45;;
48014;SDS011;33780;51.034;7.120;2023-02-01T02:48:09;5.90;;;1.30;;
48014;SDS011;33780;51.034;7.120;2023-02-01T02:53:38;7.68;;;1.63;;
48014;SDS011;33780;51.034;7.120;2023-02-01T02:56:31;4.78;;;1.25;;
48014;SDS011;33780;51.034;7.120;2023-02-01T02:59:17;7.05;;;1.38;;
48014;SDS011;33780;51.034;7.120;2023-02-01T03:02:05;6.38;;;1.52;;
48014;SDS011;33780;51.034;7.120;2023-02-01T03:04:53;3.05;;;1.13;;
48014;SDS011;33780;51.034;7.120;2023-02-01T03:10:16;5.72;;;1.17;;
48014;SDS011;33780;51.034;7.120;2023-02-01T03:12:45;8.50;;;1.50;;
48014;SDS011;33780;51.034;7.120;2023-02-01T03:15:21;7.80;;;1.55;;
48014;SDS011;33780;51.034;7.120;2023-02-01T03:18:00;6.35;;;1.40;;
48014;SDS011;33780;51.034;7.120;2023-02-01T03:20:31;8.32;;;1.52;;
48014;SDS011;33780;51.034;7.120;2023-02-01T03:22:57;6.80;;;1.58;;
48014;SDS011;33780;51.034;7.120;2023-02-01T03:25:27;9.25;;;1.67;;
48014;SDS011;33780;51.034;7.120;2023-02-01T03:28:00;5.30;;;1.35;;
48014;SDS011;33780;51.034;7.120;2023-02-01T03:30:30;6.93;;;1.63;;
48014;SDS011;33780;51.034;7.120;2023-02-01T03:33:00;7.78;;;1.75;;
48014;SDS011;33780;51.034;7.120;2023-02-01T03:35:33;2.42;;;1.15;;
48014;SDS011;33780;51.034;7.120;2023-02-01T03:38:21;6.18;;;1.88;;
48014;SDS011;33780;51.034;7.120;2023-02-01T03:41:02;5.10;;;1.38;;
48014;SDS011;33780;51.034;7.120;2023-02-01T03:43:51;9.15;;;1.67;;
48014;SDS011;33780;51.034;7.120;2023-02-01T03:46:22;5.97;;;1.73;;
48014;SDS011;33780;51.034;7.120;2023-02-01T03:48:57;9.15;;;1.60;;
48014;SDS011;33780;51.034;7.120;2023-02-01T03:51:26;4.78;;;1.70;;
48014;SDS011;33780;51.034;7.120;2023-02-01T03:53:51;8.85;;;2.10;;
48014;SDS011;33780;51.034;7.120;2023-02-01T03:56:19;7.30;;;1.98;;
48014;SDS011;33780;51.034;7.120;2023-02-01T03:58:47;5.60;;;1.75;;
48014;SDS011;33780;51.034;7.120;2023-02-01T04:01:23;6.35;;;1.63;;
48014;SDS011;33780;51.034;7.120;2023-02-01T04:03:50;8.45;;;2.03;;
48014;SDS011;33780;51.034;7.120;2023-02-01T04:06:16;4.93;;;1.60;;
48014;SDS011;33780;51.034;7.120;2023-02-01T04:08:41;4.05;;;1.77;;
48014;SDS011;33780;51.034;7.120;2023-02-01T04:11:07;5.50;;;1.83;;
48014;SDS011;33780;51.034;7.120;2023-02-01T04:13:32;7.32;;;2.03;;
48014;SDS011;33780;51.034;7.120;2023-02-01T04:15:57;6.00;;;2.00;;
48014;SDS011;33780;51.034;7.120;2023-02-01T04:18:22;10.25;;;1.67;;
48014;SDS011;33780;51.034;7.120;2023-02-01T04:20:48;3.95;;;1.65;;
48014;SDS011;33780;51.034;7.120;2023-02-01T04:23:13;7.45;;;2.00;;
48014;SDS011;33780;51.034;7.120;2023-02-01T04:25:40;7.85;;;1.80;;
48014;SDS011;33780;51.034;7.120;2023-02-01T04:28:05;4.07;;;1.27;;
48014;SDS011;33780;51.034;7.120;2023-02-01T04:30:32;8.82;;;1.75;;
48014;SDS011;33780;51.034;7.120;2023-02-01T04:32:58;5.70;;;1.63;;
48014;SDS011;33780;51.034;7.120;2023-02-01T04:35:23;6.28;;;1.58;;
48014;SDS011;33780;51.034;7.120;2023-02-01T04:37:48;5.35;;;2.08;;
48014;SDS011;33780;51.034;7.120;2023-02-01T04:40:13;3.53;;;1.60;;
48014;SDS011;33780;51.034;7.120;2023-02-01T04:42:39;5.05;;;1.73;;
48014;SDS011;33780;51.034;7.120;2023-02-01T04:45:04;7.95;;;1.92;;
48014;SDS011;33780;51.034;7.120;2023-02-01T04:47:30;5.57;;;1.60;;
48014;SDS011;33780;51.034;7.120;2023-02-01T04:49:56;6.10;;;1.67;;
48014;SDS011;33780;51.034;7.120;2023-02-01T04:52:21;7.35;;;1.85;;
48014;SDS011;33780;51.034;7.120;2023-02-01T04:54:46;16.65;;;2.55;;
48014;SDS011;33780;51.034;7.120;2023-02-01T04:57:11;9.02;;;1.80;;
48014;SDS011;33780;51.034;7.120;2023-02-01T04:59:38;6.32;;;1.67;;
48014;SDS011;33780;51.034;7.120;2023-02-01T05:02:04;4.95;;;1.73;;
48014;SDS011;33780;51.034;7.120;2023-02-01T05:04:29;7.75;;;1.60;;
48014;SDS011;33780;51.034;7.120;2023-02-01T05:06:54;6.50;;;1.52;;
48014;SDS011;33780;51.034;7.120;2023-02-01T05:09:20;10.05;;;1.70;;
48014;SDS011;33780;51.034;7.120;2023-02-01T05:11:46;8.30;;;1.90;;
48014;SDS011;33780;51.034;7.120;2023-02-01T05:14:30;14.50;;;2.03;;
48014;SDS011;33780;51.034;7.120;2023-02-01T05:16:55;7.78;;;1.45;;
48014;SDS011;33780;51.034;7.120;2023-02-01T05:19:21;6.07;;;1.52;;
48014;SDS011;33780;51.034;7.120;2023-02-01T05:21:46;5.90;;;1.50;;
48014;SDS011;33780;51.034;7.120;2023-02-01T05:24:11;4.32;;;1.30;;
48014;SDS011;33780;51.034;7.120;2023-02-01T05:26:45;5.63;;;1.23;;
48014;SDS011;33780;51.034;7.120;2023-02-01T05:29:12;4.90;;;1.52;;
48014;SDS011;33780;51.034;7.120;2023-02-01T05:31:38;4.70;;;1.40;;
48014;SDS011;33780;51.034;7.120;2023-02-01T05:34:04;7.15;;;1.35;;
48014;SDS011;33780;51.034;7.120;2023-02-01T05:36:30;5.88;;;1.15;;
48014;SDS011;33780;51.034;7.120;2023-02-01T05:38:55;4.85;;;1.40;;
48014;SDS011;33780;51.034;7.120;2023-02-01T05:41:21;5.28;;;1.30;;
48014;SDS011;33780;51.034;7.120;2023-02-01T05:43:46;9.75;;;1.50;;
48014;SDS011;33780;51.034;7.120;2023-02-01T05:46:13;6.95;;;1.10;;
48014;SDS011;33780;51.034;7.120;2023-02-01T05:48:41;8.60;;;1.27;;
48014;SDS011;33780;51.034;7.120;2023-02-01T05:51:07;8.35;;;1.27;;
48014;SDS011;33780;51.034;7.120;2023-02-01T05:53:33;9.23;;;1.52;;
48014;SDS011;33780;51.034;7.120;2023-02-01T05:55:59;4.07;;;0.85;;
48014;SDS011;33780;51.034;7.120;2023-02-01T05:58:24;6.85;;;1.33;;
48014;SDS011;33780;51.034;7.120;2023-02-01T06:00:49;7.80;;;1.30;;
48014;SDS011;33780;51.034;7.120;2023-02-01T06:03:17;6.03;;;1.38;;
48014;SDS011;33780;51.034;7.120;2023-02-01T06:05:59;5.50;;;0.95;;
48014;SDS011;33780;51.034;7.120;2023-02-01T06:08:30;3.95;;;0.80;;
48014;SDS011;33780;51.034;7.120;2023-02-01T06:11:41;4.05;;;1.15;;
48014;SDS011;33780;51.034;7.120;2023-02-01T06:13:58;7.35;;;1.23;;
48014;SDS011;33780;51.034;7.120;2023-02-01T06:19:02;4.78;;;1.00;;
48014;SDS011;33780;51.034;7.120;2023-02-01T06:21:36;8.63;;;1.25;;
48014;SDS011;33780;51.034;7.120;2023-02-01T06:27:44;3.80;;;1.00;;
48014;SDS011;33780;51.034;7.120;2023-02-01T06:30:10;4.88;;;1.10;;
48014;SDS011;33780;51.034;7.120;2023-02-01T06:32:44;4.95;;;1.30;;
48014;SDS011;33780;51.034;7.120;2023-02-01T06:35:21;9.02;;;1.33;;
48014;SDS011;33780;51.034;7.120;2023-02-01T06:37:49;5.43;;;1.00;;
48014;SDS011;33780;51.034;7.120;2023-02-01T06:40:18;7.25;;;1.30;;
48014;SDS011;33780;51.034;7.120;2023-02-01T06:42:52;11.13;;;1.45;;
48014;SDS011;33780;51.034;7.120;2023-02-01T06:45:28;5.97;;;1.08;;
48014;SDS011;33780;51.034;7.120;2023-02-01T06:47:58;10.38;;;1.45;;
48014;SDS011;33780;51.034;7.120;2023-02-01T06:50:24;10.18;;;1.40;;
48014;SDS011;33780;51.034;7.120;2023-02-01T06:52:49;7.35;;;1.45;;
48014;SDS011;33780;51.034;7.120;2023-02-01T06:58:11;4.90;;;0.95;;
48014;SDS011;33780;51.034;7.120;2023-02-01T07:00:39;7.07;;;1.35;;
48014;SDS011;33780;51.034;7.120;2023-02-01T07:03:07;6.80;;;1.20;;
48014;SDS011;33780;51.034;7.120;2023-02-01T07:05:42;8.73;;;1.20;;
48014;SDS011;33780;51.034;7.120;2023-02-01T07:08:28;8.15;;;1.48;;
48014;SDS011;33780;51.034;7.120;2023-02-01T07:10:55;6.95;;;1.02;;
48014;SDS011;33780;51.034;7.120;2023-02-01T07:13:23;7.55;;;1.33;;
48014;SDS011;33780;51.034;7.120;2023-02-01T07:16:18;13.93;;;1.67;;
48014;SDS011;33780;51.034;7.120;2023-02-01T07:21:29;6.68;;;1.33;;
48014;SDS011;33780;51.034;7.120;2023-02-01T07:24:16;9.35;;;1.55;;
48014;SDS011;33780;51.034;7.120;2023-02-01T07:27:12;8.95;;;2.13;;
48014;SDS011;33780;51.034;7.120;2023-02-01T07:29:43;5.20;;;1.25;;
48014;SDS011;33780;51.034;7.120;2023-02-01T07:32:32;9.27;;;1.33;;
48014;SDS011;33780;51.034;7.120;2023-02-01T07:35:07;7.70;;;1.13;;
48014;SDS011;33780;51.034;7.120;2023-02-01T07:40:49;7.28;;;1.60;;
48014;SDS011;33780;51.034;7.120;2023-02-01T07:43:21;7.22;;;1.30;;
48014;SDS011;33780;51.034;7.120;2023-02-01T07:46:01;14.05;;;2.42;;
48014;SDS011;33780;51.034;7.120;2023-02-01T07:48:40;6.43;;;1.05;;
48014;SDS011;33780;51.034;7.120;2023-02-01T07:54:25;9.18;;;1.60;;
48014;SDS011;33780;51.034;7.120;2023-02-01T07:57:05;4.57;;;1.33;;
48014;SDS011;33780;51.034;7.120;2023-02-01T08:00:00;6.28;;;1.40;;
48014;SDS011;33780;51.034;7.120;2023-02-01T08:02:43;4.68;;;1.40;;
48014;SDS011;33780;51.034;7.120;2023-02-01T08:05:41;6.47;;;1.48;;
48014;SDS011;33780;51.034;7.120;2023-02-01T08:11:09;10.68;;;1.85;;
48014;SDS011;33780;51.034;7.120;2023-02-01T08:17:03;5.68;;;1.10;;
48014;SDS011;33780;51.034;7.120;2023-02-01T08:19:41;11.30;;;1.38;;
48014;SDS011;33780;51.034;7.120;2023-02-01T08:22:14;7.75;;;2.03;;
48014;SDS011;33780;51.034;7.120;2023-02-01T08:24:53;8.77;;;1.50;;
48014;SDS011;33780;51.034;7.120;2023-02-01T08:27:44;22.25;;;1.65;;
48014;SDS011;33780;51.034;7.120;2023-02-01T08:30:18;7.00;;;1.80;;
48014;SDS011;33780;51.034;7.120;2023-02-01T08:32:51;11.77;;;1.98;;
48014;SDS011;33780;51.034;7.120;2023-02-01T08:35:29;8.55;;;1.98;;
48014;SDS011;33780;51.034;7.120;2023-02-01T08:38:17;7.28;;;1.70;;
48014;SDS011;33780;51.034;7.120;2023-02-01T08:40:46;6.15;;;1.90;;
48014;SDS011;33780;51.034;7.120;2023-02-01T08:43:38;5.80;;;1.50;;
48014;SDS011;33780;51.034;7.120;2023-02-01T08:46:13;4.88;;;1.40;;
48014;SDS011;33780;51.034;7.120;2023-02-01T08:49:09;7.57;;;1.88;;
48014;SDS011;33780;51.034;7.120;2023-02-01T08:52:00;9.77;;;2.00;;
48014;SDS011;33780;51.034;7.120;2023-02-01T08:54:43;6.93;;;1.50;;
48014;SDS011;33780;51.034;7.120;2023-02-01T08:57:08;4.75;;;1.35;;
48014;SDS011;33780;51.034;7.120;2023-02-01T08:59:37;11.15;;;2.10;;
48014;SDS011;33780;51.034;7.120;2023-02-01T09:02:02;5.55;;;1.30;;
48014;SDS011;33780;51.034;7.120;2023-02-01T09:04:33;5.63;;;1.55;;
48014;SDS011;33780;51.034;7.120;2023-02-01T09:07:10;5.85;;;1.35;;
48014;SDS011;33780;51.034;7.120;2023-02-01T09:15:02;7.53;;;1.58;;
48014;SDS011;33780;51.034;7.120;2023-02-01T09:17:31;9.73;;;1.55;;
48014;SDS011;33780;51.034;7.120;2023-02-01T09:19:59;6.60;;;1.80;;
48014;SDS011;33780;51.034;7.120;2023-02-01T09:22:31;6.40;;;1.50;;
48014;SDS011;33780;51.034;7.120;2023-02-01T09:25:09;8.65;;;1.63;;
48014;SDS011;33780;51.034;7.120;2023-02-01T09:27:39;7.47;;;1.52;;
48014;SDS011;33780;51.034;7.120;2023-02-01T09:30:11;9.40;;;2.30;;
48014;SDS011;33780;51.034;7.120;2023-02-01T09:32:46;8.57;;;1.50;;
48014;SDS011;33780;51.034;7.120;2023-02-01T09:35:14;8.77;;;1.55;;
48014;SDS011;33780;51.034;7.120;2023-02-01T09:37:40;5.63;;;1.33;;
48014;SDS011;33780;51.034;7.120;2023-02-01T09:40:10;7.85;;;1.45;;
48014;SDS011;33780;51.034;7.120;2023-02-01T09:48:56;9.32;;;1.35;;
48014;SDS011;33780;51.034;7.120;2023-02-01T09:51:31;5.72;;;1.27;;
48014;SDS011;33780;51.034;7.120;2023-02-01T09:58:03;7.57;;;1.47;;
48014;SDS011;33780;51.034;7.120;2023-02-01T10:00:29;7.47;;;1.52;;
48014;SDS011;33780;51.034;7.120;2023-02-01T10:03:17;6.22;;;1.52;;
48014;SDS011;33780;51.034;7.120;2023-02-01T10:27:27;9.38;;;1.85;;
48014;SDS011;33780;51.034;7.120;2023-02-01T10:33:00;7.55;;;1.80;;
48014;SDS011;33780;51.034;7.120;2023-02-01T10:39:24;8.30;;;1.80;;
48014;SDS011;33780;51.034;7.120;2023-02-01T10:44:46;10.82;;;1.85;;
48014;SDS011;33780;51.034;7.120;2023-02-01T10:47:33;8.02;;;1.85;;
48014;SDS011;33780;51.034;7.120;2023-02-01T10:50:02;8.25;;;2.05;;
48014;SDS011;33780;51.034;7.120;2023-02-01T10:55:56;5.18;;;1.50;;
48014;SDS011;33780;51.034;7.120;2023-02-01T10:58:31;8.68;;;1.60;;
48014;SDS011;33780;51.034;7.120;2023-02-01T11:07:48;7.03;;;1.40;;
48014;SDS011;33780;51.034;7.120;2023-02-01T11:10:38;5.45;;;1.20;;
48014;SDS011;33780;51.034;7.120;2023-02-01T11:13:11;6.25;;;1.52;;
48014;SDS011;33780;51.034;7.120;2023-02-01T11:15:43;5.40;;;1.48;;
48014;SDS011;33780;51.034;7.120;2023-02-01T11:18:21;7.72;;;1.58;;
48014;SDS011;33780;51.034;7.120;2023-02-01T11:21:16;8.13;;;1.88;;
48014;SDS011;33780;51.034;7.120;2023-02-01T11:24:34;8.48;;;1.70;;
48014;SDS011;33780;51.034;7.120;2023-02-01T11:27:12;4.95;;;1.70;;
48014;SDS011;33780;51.034;7.120;2023-02-01T11:29:45;9.18;;;1.90;;
48014;SDS011;33780;51.034;7.120;2023-02-01T11:32:20;7.05;;;1.88;;
48014;SDS011;33780;51.034;7.120;2023-02-01T11:35:01;4.50;;;1.60;;
48014;SDS011;33780;51.034;7.120;2023-02-01T11:37:38;9.23;;;2.03;;
48014;SDS011;33780;51.034;7.120;2023-02-01T11:42:58;9.80;;;2.10;;
48014;SDS011;33780;51.034;7.120;2023-02-01T11:46:08;7.07;;;1.75;;
48014;SDS011;33780;51.034;7.120;2023-02-01T11:49:28;7.25;;;1.73;;
48014;SDS011;33780;51.034;7.120;2023-02-01T11:58:13;4.72;;;1.60;;
48014;SDS011;33780;51.034;7.120;2023-02-01T12:06:36;10.65;;;1.50;;
48014;SDS011;33780;51.034;7.120;2023-02-01T12:11:50;7.47;;;1.55;;
48014;SDS011;33780;51.034;7.120;2023-02-01T12:14:48;9.55;;;1.92;;
48014;SDS011;33780;51.034;7.120;2023-02-01T12:27:04;8.10;;;1.83;;
48014;SDS011;33780;51.034;7.120;2023-02-01T12:36:14;7.22;;;1.83;;
48014;SDS011;33780;51.034;7.120;2023-02-01T12:41:56;9.80;;;1.70;;
48014;SDS011;33780;51.034;7.120;2023-02-01T12:44:44;4.72;;;1.70;;
48014;SDS011;33780;51.034;7.120;2023-02-01T12:47:51;7.10;;;1.73;;
48014;SDS011;33780;51.034;7.120;2023-02-01T12:50:39;6.40;;;1.67;;
48014;SDS011;33780;51.034;7.120;2023-02-01T12:56:48;5.75;;;1.75;;
48014;SDS011;33780;51.034;7.120;2023-02-01T13:05:23;5.07;;;1.52;;
48014;SDS011;33780;51.034;7.120;2023-02-01T13:08:05;5.93;;;1.48;;
48014;SDS011;33780;51.034;7.120;2023-02-01T13:17:30;7.68;;;1.50;;
48014;SDS011;33780;51.034;7.120;2023-02-01T13:20:16;9.38;;;1.50;;
48014;SDS011;33780;51.034;7.120;2023-02-01T13:27:03;7.03;;;1.10;;
48014;SDS011;33780;51.034;7.120;2023-02-01T13:36:10;2.58;;;0.90;;
48014;SDS011;33780;51.034;7.120;2023-02-01T13:39:12;6.95;;;1.15;;
48014;SDS011;33780;51.034;7.120;2023-02-01T13:48:14;5.78;;;1.20;;
48014;SDS011;33780;51.034;7.120;2023-02-01T13:51:03;5.07;;;1.50;;
48014;SDS011;33780;51.034;7.120;2023-02-01T13:57:25;3.78;;;0.98;;
48014;SDS011;33780;51.034;7.120;2023-02-01T14:00:49;3.35;;;1.30;;
48014;SDS011;33780;51.034;7.120;2023-02-01T14:06:35;5.63;;;1.10;;
48014;SDS011;33780;51.034;7.120;2023-02-01T14:09:30;5.47;;;1.42;;
48014;SDS011;33780;51.034;7.120;2023-02-01T14:21:35;7.15;;;1.60;;
48014;SDS011;33780;51.034;7.120;2023-02-01T14:24:38;5.72;;;1.25;;
48014;SDS011;33780;51.034;7.120;2023-02-01T14:27:18;8.65;;;1.48;;
48014;SDS011;33780;51.034;7.120;2023-02-01T14:30:05;6.75;;;1.45;;
48014;SDS011;33780;51.034;7.120;2023-02-01T14:32:54;2.45;;;1.00;;
48014;SDS011;33780;51.034;7.120;2023-02-01T14:35:48;9.13;;;1.23;;
48014;SDS011;33780;51.034;7.120;2023-02-01T14:38:35;7.55;;;1.55;;
48014;SDS011;33780;51.034;7.120;2023-02-01T14:41:33;5.53;;;1.20;;
48014;SDS011;33780;51.034;7.120;2023-02-01T14:44:22;4.82;;;1.17;;
48014;SDS011;33780;51.034;7.120;2023-02-01T14:47:29;7.57;;;1.27;;
48014;SDS011;33780;51.034;7.120;2023-02-01T14:52:50;4.32;;;1.25;;
48014;SDS011;33780;51.034;7.120;2023-02-01T14:55:51;4.55;;;1.20;;
48014;SDS011;33780;51.034;7.120;2023-02-01T14:58:32;6.28;;;0.63;;
48014;SDS011;33780;51.034;7.120;2023-02-01T15:01:06;5.57;;;1.00;;
48014;SDS011;33780;51.034;7.120;2023-02-01T15:09:18;6.13;;;1.17;;
48014;SDS011;33780;51.034;7.120;2023-02-01T15:17:26;7.22;;;1.25;;
48014;SDS011;33780;51.034;7.120;2023-02-01T15:20:15;3.40;;;1.35;;
48014;SDS011;33780;51.034;7.120;2023-02-01T15:23:16;9.07;;;1.20;;
48014;SDS011;33780;51.034;7.120;2023-02-01T15:25:52;5.03;;;1.00;;
48014;SDS011;33780;51.034;7.120;2023-02-01T15:28:36;5.30;;;0.90;;
48014;SDS011;33780;51.034;7.120;2023-02-01T15:31:38;6.40;;;1.10;;
48014;SDS011;33780;51.034;7.120;2023-02-01T15:34:14;4.88;;;1.00;;
48014;SDS011;33780;51.034;7.120;2023-02-01T15:37:31;6.43;;;1.58;;
48014;SDS011;33780;51.034;7.120;2023-02-01T15:45:54;7.10;;;0.88;;
48014;SDS011;33780;51.034;7.120;2023-02-01T15:48:32;7.40;;;1.45;;
48014;SDS011;33780;51.034;7.120;2023-02-01T15:51:11;6.82;;;0.90;;
48014;SDS011;33780;51.034;7.120;2023-02-01T15:54:16;4.88;;;1.10;;
48014;SDS011;33780;51.034;7.120;2023-02-01T15:56:53;3.70;;;0.73;;
48014;SDS011;33780;51.034;7.120;2023-02-01T15:59:41;3.70;;;1.00;;
48014;SDS011;33780;51.034;7.120;2023-02-01T16:02:33;4.95;;;1.00;;
48014;SDS011;33780;51.034;7.120;2023-02-01T16:08:23;7.18;;;1.02;;
48014;SDS011;33780;51.034;7.120;2023-02-01T16:11:20;4.65;;;0.98;;
48014;SDS011;33780;51.034;7.120;2023-02-01T16:13:57;3.47;;;1.13;;
48014;SDS011;33780;51.034;7.120;2023-02-01T16:16:42;2.67;;;0.88;;
48014;SDS011;33780;51.034;7.120;2023-02-01T16:19:08;4.18;;;1.05;;
48014;SDS011;33780;51.034;7.120;2023-02-01T16:21:42;2.88;;;0.88;;
48014;SDS011;33780;51.034;7.120;2023-02-01T16:24:24;4.97;;;1.10;;
48014;SDS011;33780;51.034;7.120;2023-02-01T16:26:50;6.28;;;0.93;;
48014;SDS011;33780;51.034;7.120;2023-02-01T16:29:19;5.68;;;1.08;;
48014;SDS011;33780;51.034;7.120;2023-02-01T16:31:46;4.72;;;0.90;;
48014;SDS011;33780;51.034;7.120;2023-02-01T16:34:19;5.47;;;0.98;;
48014;SDS011;33780;51.034;7.120;2023-02-01T16:37:06;2.50;;;0.95;;
48014;SDS011;33780;51.034;7.120;2023-02-01T16:43:22;5.75;;;1.05;;
48014;SDS011;33780;51.034;7.120;2023-02-01T16:48:58;3.35;;;0.68;;
48014;SDS011;33780;51.034;7.120;2023-02-01T16:51:53;5.00;;;1.00;;
48014;SDS011;33780;51.034;7.120;2023-02-01T16:54:26;6.20;;;1.27;;
48014;SDS011;33780;51.034;7.120;2023-02-01T16:59:49;3.10;;;1.10;;
48014;SDS011;33780;51.034;7.120;2023-02-01T17:02:23;5.53;;;1.00;;
48014;SDS011;33780;51.034;7.120;2023-02-01T17:04:55;4.10;;;1.20;;
48014;SDS011;33780;51.034;7.120;2023-02-01T17:07:20;5.65;;;1.02;;
48014;SDS011;33780;51.034;7.120;2023-02-01T17:09:51;4.85;;;1.45;;
48014;SDS011;33780;51.034;7.120;2023-02-01T17:12:21;4.03;;;1.42;;
48014;SDS011;33780;51.034;7.120;2023-02-01T17:14:52;3.90;;;0.98;;
48014;SDS011;33780;51.034;7.120;2023-02-01T17:17:23;6.30;;;1.10;;
48014;SDS011;33780;51.034;7.120;2023-02-01T17:20:04;6.72;;;1.33;;
48014;SDS011;33780;51.034;7.120;2023-02-01T17:22:42;6.97;;;1.33;;
48014;SDS011;33780;51.034;7.120;2023-02-01T17:25:13;6.97;;;1.40;;
48014;SDS011;33780;51.034;7.120;2023-02-01T17:27:40;9.55;;;1.52;;
48014;SDS011;33780;51.034;7.120;2023-02-01T17:30:13;3.25;;;1.10;;
48014;SDS011;33780;51.034;7.120;2023-02-01T17:32:43;3.65;;;1.17;;
48014;SDS011;33780;51.034;7.120;2023-02-01T17:35:13;9.95;;;1.80;;
48014;SDS011;33780;51.034;7.120;2023-02-01T17:37:43;2.45;;;0.90;;
48014;SDS011;33780;51.034;7.120;2023-02-01T17:40:17;6.97;;;1.40;;
48014;SDS011;33780;51.034;7.120;2023-02-01T17:42:43;8.27;;;1.30;;
48014;SDS011;33780;51.034;7.120;2023-02-01T17:47:56;4.20;;;1.23;;
48014;SDS011;33780;51.034;7.120;2023-02-01T17:50:33;7.25;;;1.13;;
48014;SDS011;33780;51.034;7.120;2023-02-01T17:53:14;2.40;;;0.90;;
48014;SDS011;33780;51.034;7.120;2023-02-01T17:55:44;4.90;;;1.08;;
48014;SDS011;33780;51.034;7.120;2023-02-01T17:58:16;6.47;;;1.03;;
48014;SDS011;33780;51.034;7.120;2023-02-01T18:00:42;6.35;;;1.45;;
48014;SDS011;33780;51.034;7.120;2023-02-01T18:03:17;5.05;;;1.20;;
48014;SDS011;33780;51.034;7.120;2023-02-01T18:05:46;5.78;;;1.10;;
48014;SDS011;33780;51.034;7.120;2023-02-01T18:08:15;6.00;;;1.42;;
48014;SDS011;33780;51.034;7.120;2023-02-01T18:10:41;7.22;;;1.23;;
48014;SDS011;33780;51.034;7.120;2023-02-01T18:13:07;10.23;;;1.55;;
48014;SDS011;33780;51.034;7.120;2023-02-01T18:15:35;8.93;;;1.67;;
48014;SDS011;33780;51.034;7.120;2023-02-01T18:18:01;6.78;;;1.52;;
48014;SDS011;33780;51.034;7.120;2023-02-01T18:20:26;4.35;;;1.60;;
48014;SDS011;33780;51.034;7.120;2023-02-01T18:22:52;7.40;;;1.50;;
48014;SDS011;33780;51.034;7.120;2023-02-01T18:27:50;4.28;;;1.25;;
48014;SDS011;33780;51.034;7.120;2023-02-01T18:30:21;5.32;;;1.10;;
48014;SDS011;33780;51.034;7.120;2023-02-01T18:32:48;5.30;;;1.10;;
48014;SDS011;33780;51.034;7.120;2023-02-01T18:35:15;5.60;;;1.20;;
48014;SDS011;33780;51.034;7.120;2023-02-01T18:37:40;7.18;;;1.38;;
48014;SDS011;33780;51.034;7.120;2023-02-01T18:40:06;6.10;;;1.60;;
48014;SDS011;33780;51.034;7.120;2023-02-01T18:42:35;5.03;;;1.40;;
48014;SDS011;33780;51.034;7.120;2023-02-01T18:45:00;7.95;;;1.60;;
48014;SDS011;33780;51.034;7.120;2023-02-01T18:47:26;7.60;;;1.25;;
48014;SDS011;33780;51.034;7.120;2023-02-01T18:49:51;7.07;;;1.60;;
48014;SDS011;33780;51.034;7.120;2023-02-01T18:52:16;5.10;;;1.67;;
48014;SDS011;33780;51.034;7.120;2023-02-01T18:54:42;7.15;;;1.42;;
48014;SDS011;33780;51.034;7.120;2023-02-01T18:57:07;6.10;;;1.52;;
48014;SDS011;33780;51.034;7.120;2023-02-01T18:59:33;7.22;;;1.55;;
48014;SDS011;33780;51.034;7.120;2023-02-01T19:01:59;5.82;;;1.48;;
48014;SDS011;33780;51.034;7.120;2023-02-01T19:04:24;4.63;;;1.52;;
48014;SDS011;33780;51.034;7.120;2023-02-01T19:06:49;6.25;;;1.80;;
48014;SDS011;33780;51.034;7.120;2023-02-01T19:09:15;8.05;;;1.60;;
48014;SDS011;33780;51.034;7.120;2023-02-01T19:11:41;8.38;;;1.42;;
48014;SDS011;33780;51.034;7.120;2023-02-01T19:14:06;6.45;;;1.50;;
48014;SDS011;33780;51.034;7.120;2023-02-01T19:16:32;10.77;;;1.98;;
48014;SDS011;33780;51.034;7.120;2023-02-01T19:18:59;5.15;;;1.40;;
48014;SDS011;33780;51.034;7.120;2023-02-01T19:21:31;10.20;;;1.83;;
48014;SDS011;33780;51.034;7.120;2023-02-01T19:24:22;9.13;;;1.90;;
48014;SDS011;33780;51.034;7.120;2023-02-01T19:27:04;4.07;;;1.35;;